createdAt,value
2023-04-03T00:01:52.133Z,3.08
2023-04-03T00:04:19.690Z,3.03
2023-04-03T00:06:47.258Z,2.96
2023-04-03T00:09:14.733Z,2.86
2023-04-03T00:11:42.231Z,2.91
2023-04-03T00:14:09.767Z,2.83
2023-04-03T00:16:37.290Z,2.81
2023-04-03T00:19:04.903Z,2.84
2023-04-03T00:21:32.915Z,2.82
2023-04-03T00:24:00.588Z,2.77
2023-04-03T00:26:28.070Z,2.86
2023-04-03T00:28:55.825Z,2.85
2023-04-03T00:31:23.670Z,2.78
2023-04-03T00:33:51.302Z,2.67
2023-04-03T00:36:18.970Z,2.57
2023-04-03T00:38:46.723Z,2.73
2023-04-03T00:41:14.225Z,2.81
2023-04-03T00:43:41.790Z,2.75
2023-04-03T00:46:09.783Z,2.79
2023-04-03T00:48:44.082Z,2.88
2023-04-03T00:51:16.124Z,2.68
2023-04-03T00:53:56.407Z,2.87
2023-04-03T00:56:28.271Z,2.80
2023-04-03T00:59:02.555Z,2.81
2023-04-03T01:01:31.985Z,2.82
2023-04-03T01:04:04.335Z,2.90
2023-04-03T01:06:37.902Z,2.97
2023-04-03T01:09:09.667Z,2.84
2023-04-03T01:11:37.358Z,2.87
2023-04-03T01:14:07.281Z,2.89
2023-04-03T01:16:34.825Z,2.97
2023-04-03T01:19:03.031Z,2.96
2023-04-03T01:21:49.401Z,3.20
2023-04-03T01:24:40.730Z,2.95
2023-04-03T01:27:13.385Z,3.10
2023-04-03T01:29:42.651Z,3.12
2023-04-03T01:32:10.887Z,3.14
2023-04-03T01:34:39.003Z,3.17
2023-04-03T01:37:37.482Z,3.23
2023-04-03T01:40:22.580Z,3.20
2023-04-03T01:42:52.980Z,3.15
2023-04-03T01:45:28.138Z,3.20
2023-04-03T01:48:31.388Z,3.40
2023-04-03T01:50:59.058Z,3.30
2023-04-03T01:53:26.765Z,3.27
2023-04-03T01:55:54.654Z,3.42
2023-04-03T01:58:22.286Z,3.37
2023-04-03T02:00:52.772Z,3.33
2023-04-03T02:03:20.724Z,3.31
2023-04-03T02:05:49.436Z,3.25
2023-04-03T02:08:20.060Z,3.20
2023-04-03T02:10:52.112Z,3.23
2023-04-03T02:13:20.088Z,3.16
2023-04-03T02:15:47.725Z,3.30
2023-04-03T02:18:18.583Z,3.53
2023-04-03T02:20:47.683Z,4.11
2023-04-03T02:23:15.125Z,4.86
2023-04-03T02:25:42.611Z,5.64
2023-04-03T02:28:10.167Z,6.35
2023-04-03T02:30:37.808Z,7.11
2023-04-03T02:33:05.958Z,7.86
2023-04-03T02:35:33.574Z,8.55
2023-04-03T02:38:01.531Z,9.17
2023-04-03T02:40:29.084Z,9.82
2023-04-03T02:42:56.526Z,10.45
2023-04-03T02:45:25.727Z,11.00
2023-04-03T02:47:53.597Z,11.56
2023-04-03T02:50:21.244Z,12.13
2023-04-03T02:52:48.798Z,12.65
2023-04-03T02:55:17.256Z,13.20
2023-04-03T02:57:47.664Z,13.95
2023-04-03T03:00:15.796Z,14.59
2023-04-03T03:02:43.341Z,15.11
2023-04-03T03:05:10.945Z,15.75
2023-04-03T03:07:38.457Z,16.24
2023-04-03T03:10:06.467Z,16.69
2023-04-03T03:12:34.046Z,17.18
2023-04-03T03:15:01.512Z,17.79
2023-04-03T03:17:30.086Z,18.16
2023-04-03T03:19:58.060Z,18.61
2023-04-03T03:22:26.234Z,18.90
2023-04-03T03:24:53.959Z,19.26
2023-04-03T03:27:21.957Z,19.69
2023-04-03T03:29:49.610Z,20.24
2023-04-03T03:32:17.344Z,20.68
2023-04-03T03:34:44.751Z,21.18
2023-04-03T03:37:12.276Z,21.71
2023-04-03T03:39:40.057Z,21.99
2023-04-03T03:42:07.652Z,22.37
2023-04-03T03:44:35.172Z,22.85
2023-04-03T03:47:02.739Z,23.17
2023-04-03T03:49:30.729Z,23.46
2023-04-03T03:51:58.569Z,23.92
2023-04-03T03:54:26.057Z,24.30
2023-04-03T03:56:53.884Z,24.66
2023-04-03T03:59:21.906Z,24.81
2023-04-03T04:01:49.750Z,25.16
2023-04-03T04:04:18.009Z,25.37
2023-04-03T04:06:46.345Z,25.88
2023-04-03T04:09:14.071Z,26.22
2023-04-03T04:11:41.993Z,26.56
2023-04-03T04:14:13.858Z,26.93
2023-04-03T04:16:43.379Z,27.37
2023-04-03T04:19:16.666Z,27.56
2023-04-03T04:21:46.832Z,27.67
2023-04-03T04:24:14.607Z,27.85
2023-04-03T04:26:42.545Z,28.05
2023-04-03T04:29:13.301Z,28.29
2023-04-03T04:31:41.040Z,28.66
2023-04-03T04:34:08.906Z,29.11
2023-04-03T04:36:38.092Z,29.36
2023-04-03T04:39:06.530Z,29.91
2023-04-03T04:41:34.179Z,30.10
2023-04-03T04:44:03.978Z,30.12
2023-04-03T04:46:33.104Z,30.13
2023-04-03T04:49:01.170Z,30.18
2023-04-03T04:51:41.137Z,30.15
2023-04-03T04:54:17.841Z,30.43
2023-04-03T04:56:47.665Z,30.63
2023-04-03T04:59:15.242Z,31.01
2023-04-03T05:01:43.561Z,31.31
2023-04-03T05:04:16.714Z,31.34
2023-04-03T05:06:46.569Z,31.42
2023-04-03T05:09:21.361Z,31.60
2023-04-03T05:11:50.155Z,31.56
2023-04-03T05:14:20.045Z,31.65
2023-04-03T05:16:48.897Z,31.62
2023-04-03T05:19:17.788Z,31.62
2023-04-03T05:21:45.577Z,31.64
2023-04-03T05:24:17.354Z,31.79
2023-04-03T05:26:45.563Z,32.02
2023-04-03T05:29:14.314Z,32.10
2023-04-03T05:31:42.576Z,32.49
2023-04-03T05:34:12.597Z,32.63
2023-04-03T05:36:41.452Z,32.84
2023-04-03T05:39:10.191Z,32.91
2023-04-03T05:41:41.111Z,32.95
2023-04-03T05:44:08.659Z,33.16
2023-04-03T05:46:36.576Z,33.44
2023-04-03T05:49:07.281Z,33.77
2023-04-03T05:51:38.927Z,34.06
2023-04-03T05:54:29.946Z,34.41
2023-04-03T05:57:04.821Z,34.64
2023-04-03T05:59:32.472Z,34.82
2023-04-03T06:02:02.518Z,35.21
2023-04-03T06:04:30.351Z,35.35
2023-04-03T06:06:59.356Z,35.59
2023-04-03T06:09:33.551Z,35.85
2023-04-03T06:12:01.990Z,36.15
2023-04-03T06:14:32.092Z,36.49
2023-04-03T06:17:00.743Z,36.69
2023-04-03T06:19:28.766Z,36.65
2023-04-03T06:21:58.196Z,36.68
2023-04-03T06:24:26.588Z,36.95
2023-04-03T06:26:54.488Z,37.06
2023-04-03T06:29:22.810Z,37.30
2023-04-03T06:31:51.332Z,37.28
2023-04-03T06:34:19.253Z,37.44
2023-04-03T06:36:46.791Z,37.68
2023-04-03T06:39:21.964Z,37.69
2023-04-03T06:41:50.261Z,37.85
2023-04-03T06:44:19.023Z,37.99
2023-04-03T06:46:47.724Z,37.73
2023-04-03T06:49:16.267Z,37.94
2023-04-03T06:51:43.800Z,38.12
2023-04-03T06:54:11.558Z,38.14
2023-04-03T06:56:39.078Z,38.20
2023-04-03T06:59:06.637Z,38.28
2023-04-03T07:01:34.254Z,38.48
2023-04-03T07:04:01.895Z,38.55
2023-04-03T07:06:29.541Z,38.66
2023-04-03T07:08:57.363Z,38.75
2023-04-03T07:11:25.321Z,38.84
2023-04-03T07:13:53.157Z,38.88
2023-04-03T07:16:21.632Z,38.83
2023-04-03T07:18:49.616Z,38.67
2023-04-03T07:21:17.069Z,38.38
2023-04-03T07:23:44.759Z,38.18
2023-04-03T07:26:12.425Z,38.04
2023-04-03T07:28:41.509Z,37.78
2023-04-03T07:31:14.743Z,37.13
2023-04-03T07:33:43.506Z,36.30
2023-04-03T07:36:16.213Z,35.40
2023-04-03T07:38:43.799Z,34.80
2023-04-03T07:41:21.316Z,34.30
2023-04-03T07:43:51.002Z,33.61
2023-04-03T07:46:19.005Z,32.69
2023-04-03T07:48:46.616Z,31.94
2023-04-03T07:51:14.448Z,31.48
2023-04-03T07:53:42.501Z,31.11
2023-04-03T07:56:10.949Z,30.61
2023-04-03T07:58:38.556Z,29.76
2023-04-03T08:01:06.100Z,29.55
2023-04-03T08:03:33.820Z,29.15
2023-04-03T08:06:09.112Z,29.17
2023-04-03T08:08:39.325Z,28.23
2023-04-03T08:11:07.997Z,27.37
2023-04-03T08:13:36.917Z,26.64
2023-04-03T08:16:18.608Z,26.72
2023-04-03T08:18:46.178Z,25.86
2023-04-03T08:21:14.335Z,25.53
2023-04-03T08:23:42.976Z,25.31
2023-04-03T08:26:12.866Z,24.80
2023-04-03T08:28:41.784Z,24.69
2023-04-03T08:31:13.048Z,24.43
2023-04-03T08:33:41.370Z,23.75
2023-04-03T08:36:17.680Z,23.37
2023-04-03T08:38:45.331Z,23.16
2023-04-03T08:41:38.023Z,23.01
2023-04-03T08:44:37.645Z,23.02
2023-04-03T08:47:12.233Z,22.52
2023-04-03T08:49:52.566Z,22.34
2023-04-03T08:52:27.642Z,21.27
2023-04-03T08:55:02.566Z,21.20
2023-04-03T08:57:37.122Z,21.15
2023-04-03T09:00:27.760Z,21.22
2023-04-03T09:02:57.847Z,21.28
2023-04-03T09:05:41.445Z,21.00
2023-04-03T09:08:27.313Z,20.77
2023-04-03T09:11:08.642Z,20.41
2023-04-03T09:13:53.748Z,20.00
2023-04-03T09:16:30.505Z,19.98
2023-04-03T09:19:10.717Z,19.60
2023-04-03T09:21:43.517Z,19.31
2023-04-03T09:24:15.347Z,19.38
2023-04-03T09:26:48.995Z,19.20
2023-04-03T09:29:22.004Z,19.02
2023-04-03T09:31:54.164Z,18.91
2023-04-03T09:34:29.131Z,18.31
2023-04-03T09:37:07.265Z,18.54
2023-04-03T09:39:51.262Z,18.54
2023-04-03T09:42:23.873Z,17.92
2023-04-03T09:45:00.844Z,17.87
2023-04-03T09:47:31.427Z,17.84
2023-04-03T09:50:11.556Z,17.99
2023-04-03T09:52:40.552Z,17.93
2023-04-03T09:55:15.708Z,18.08
2023-04-03T09:57:43.493Z,17.99
2023-04-03T10:00:33.552Z,17.95
2023-04-03T10:03:01.788Z,17.88
2023-04-03T10:05:32.439Z,17.85
2023-04-03T10:08:10.842Z,18.00
2023-04-03T10:10:39.663Z,17.93
2023-04-03T10:13:22.437Z,18.19
2023-04-03T10:15:57.719Z,18.10
2023-04-03T10:18:48.234Z,18.07
2023-04-03T10:21:44.081Z,17.97
2023-04-03T10:24:22.257Z,17.89
2023-04-03T10:27:07.015Z,17.66
2023-04-03T10:30:05.072Z,17.63
2023-04-03T10:33:11.635Z,17.49
2023-04-03T10:36:10.671Z,17.18
2023-04-03T10:38:47.424Z,17.26
2023-04-03T10:41:36.164Z,17.12
2023-04-03T10:44:09.396Z,17.07
2023-04-03T10:46:45.139Z,17.27
2023-04-03T10:49:36.125Z,17.37
2023-04-03T10:52:20.553Z,17.21
2023-04-03T10:55:20.335Z,17.39
2023-04-03T10:57:50.740Z,17.67
2023-04-03T11:00:23.869Z,17.85
2023-04-03T11:03:12.060Z,18.19
2023-04-03T11:05:46.460Z,17.59
2023-04-03T11:08:52.678Z,17.58
2023-04-03T11:11:29.291Z,17.34
2023-04-03T11:14:03.784Z,17.30
2023-04-03T11:16:51.126Z,17.10
2023-04-03T11:19:37.944Z,17.12
2023-04-03T11:22:22.592Z,16.96
2023-04-03T11:25:11.922Z,17.01
2023-04-03T11:27:50.155Z,17.10
2023-04-03T11:30:29.464Z,17.15
2023-04-03T11:33:20.093Z,16.93
2023-04-03T11:35:53.217Z,16.84
2023-04-03T11:38:40.870Z,17.07
2023-04-03T11:41:11.829Z,16.87
2023-04-03T11:43:56.801Z,16.87
2023-04-03T11:46:47.350Z,17.00
2023-04-03T11:49:52.329Z,17.09
2023-04-03T11:52:44.781Z,17.07
2023-04-03T11:55:24.322Z,17.20
2023-04-03T11:58:01.638Z,17.38
2023-04-03T12:00:52.296Z,17.18
2023-04-03T12:03:26.289Z,17.09
2023-04-03T12:06:01.533Z,17.10
2023-04-03T12:08:30.705Z,16.81
2023-04-03T12:11:10.700Z,16.79
2023-04-03T12:14:06.488Z,16.84
2023-04-03T12:16:44.138Z,16.66
2023-04-03T12:19:44.801Z,16.70
2023-04-03T12:22:16.640Z,16.47
2023-04-03T12:24:47.128Z,16.50
2023-04-03T12:27:25.944Z,16.57
2023-04-03T12:30:08.941Z,16.67
2023-04-03T12:32:50.562Z,16.58
2023-04-03T12:35:35.415Z,16.74
2023-04-03T12:38:25.641Z,16.45
2023-04-03T12:41:44.240Z,16.53
2023-04-03T12:44:24.768Z,16.32
2023-04-03T12:46:53.859Z,16.40
2023-04-03T12:49:28.446Z,16.30
2023-04-03T12:51:56.622Z,16.26
2023-04-03T12:54:43.267Z,16.29
2023-04-03T12:57:17.585Z,16.24
2023-04-03T12:59:47.976Z,16.23
2023-04-03T13:02:25.174Z,16.10
2023-04-03T13:04:55.269Z,15.99
2023-04-03T13:07:28.578Z,15.93
2023-04-03T13:10:02.412Z,16.06
2023-04-03T13:12:32.276Z,16.08
2023-04-03T13:15:16.966Z,16.12
2023-04-03T13:17:44.971Z,16.22
2023-04-03T13:20:35.960Z,16.00
2023-04-03T13:23:19.175Z,15.96
2023-04-03T13:25:48.548Z,15.91
2023-04-03T13:28:24.156Z,15.78
2023-04-03T13:31:06.437Z,15.78
2023-04-03T13:33:39.168Z,15.62
2023-04-03T13:36:23.117Z,15.56
2023-04-03T13:39:05.946Z,15.67
2023-04-03T13:41:38.552Z,15.65
2023-04-03T13:44:24.463Z,15.81
2023-04-03T13:46:53.417Z,15.63
2023-04-03T13:49:44.106Z,15.86
2023-04-03T13:52:33.901Z,15.72
2023-04-03T13:55:18.853Z,15.57
2023-04-03T13:58:21.198Z,15.73
2023-04-03T14:00:53.445Z,15.66
2023-04-03T14:03:32.145Z,15.58
2023-04-03T14:06:02.791Z,15.30
2023-04-03T14:08:42.228Z,15.14
2023-04-03T14:11:19.257Z,15.11
2023-04-03T14:13:48.504Z,14.86
2023-04-03T14:16:28.679Z,15.00
2023-04-03T14:18:56.280Z,14.96
2023-04-03T14:21:24.472Z,14.82
2023-04-03T14:23:52.330Z,14.88
2023-04-03T14:26:23.709Z,14.92
2023-04-03T14:28:54.791Z,14.83
2023-04-03T14:31:24.049Z,14.85
2023-04-03T14:33:51.813Z,14.69
2023-04-03T14:36:26.571Z,14.72
2023-04-03T14:38:55.552Z,14.44
2023-04-03T14:41:26.753Z,14.41
2023-04-03T14:43:55.082Z,14.28
2023-04-03T14:46:43.037Z,14.26
2023-04-03T14:49:29.208Z,14.35
2023-04-03T14:52:00.111Z,14.22
2023-04-03T14:54:29.278Z,14.15
2023-04-03T14:56:59.517Z,14.02
2023-04-03T14:59:28.142Z,13.92
2023-04-03T15:01:55.793Z,13.80
2023-04-03T15:04:23.367Z,13.73
2023-04-03T15:06:52.870Z,13.69
2023-04-03T15:09:29.003Z,13.70
2023-04-03T15:11:57.025Z,13.58
2023-04-03T15:14:35.934Z,13.59
2023-04-03T15:17:08.582Z,13.63
2023-04-03T15:19:40.227Z,13.57
2023-04-03T15:22:08.224Z,13.61
2023-04-03T15:24:35.946Z,13.34
2023-04-03T15:27:03.717Z,13.26
2023-04-03T15:29:31.338Z,13.25
2023-04-03T15:31:59.005Z,13.24
2023-04-03T15:34:26.496Z,13.23
2023-04-03T15:36:54.187Z,13.25
2023-04-03T15:39:22.281Z,13.30
2023-04-03T15:41:49.844Z,13.32
2023-04-03T15:44:20.037Z,13.23
2023-04-03T15:46:50.084Z,13.26
2023-04-03T15:49:18.056Z,13.30
2023-04-03T15:51:45.869Z,13.35
2023-04-03T15:54:13.835Z,13.24
2023-04-03T15:56:41.374Z,13.16
2023-04-03T15:59:08.872Z,13.05
2023-04-03T16:01:37.612Z,12.99
2023-04-03T16:04:05.843Z,12.87
2023-04-03T16:06:34.670Z,12.72
2023-04-03T16:09:02.516Z,12.71
2023-04-03T16:11:30.253Z,12.56
2023-04-03T16:13:57.864Z,12.44
2023-04-03T16:16:27.256Z,12.42
2023-04-03T16:18:56.953Z,12.31
2023-04-03T16:21:25.244Z,12.06
2023-04-03T16:23:52.786Z,11.92
2023-04-03T16:26:21.341Z,11.83
2023-04-03T16:28:48.854Z,11.82
2023-04-03T16:31:17.150Z,11.83
2023-04-03T16:33:44.788Z,11.80
2023-04-03T16:36:12.370Z,11.77
2023-04-03T16:38:40.044Z,11.82
2023-04-03T16:41:07.544Z,11.73
2023-04-03T16:43:36.964Z,11.71
2023-04-03T16:46:04.769Z,11.63
2023-04-03T16:48:32.366Z,11.60
2023-04-03T16:51:00.044Z,11.45
2023-04-03T16:53:30.811Z,11.39
2023-04-03T16:56:01.498Z,11.38
2023-04-03T16:58:29.148Z,11.20
2023-04-03T17:00:56.775Z,11.28
2023-04-03T17:03:26.921Z,11.27
2023-04-03T17:05:54.840Z,11.34
2023-04-03T17:08:22.253Z,11.34
2023-04-03T17:10:51.900Z,11.22
2023-04-03T17:13:19.456Z,11.23
2023-04-03T17:15:47.115Z,11.26
2023-04-03T17:18:14.879Z,11.18
2023-04-03T17:20:42.339Z,11.11
2023-04-03T17:23:09.843Z,11.14
2023-04-03T17:25:37.483Z,11.03
2023-04-03T17:28:05.236Z,10.92
2023-04-03T17:30:32.819Z,10.80
2023-04-03T17:33:02.856Z,10.69
2023-04-03T17:35:31.262Z,10.65
2023-04-03T17:37:58.793Z,10.64
2023-04-03T17:40:26.332Z,10.58
2023-04-03T17:42:54.146Z,10.55
2023-04-03T17:45:21.993Z,10.49
2023-04-03T17:47:52.785Z,10.60
2023-04-03T17:50:21.330Z,10.49
2023-04-03T17:52:49.038Z,10.44
2023-04-03T17:55:17.978Z,10.28
2023-04-03T17:57:45.529Z,10.30
2023-04-03T18:00:17.190Z,10.19
2023-04-03T18:02:44.753Z,10.23
2023-04-03T18:05:12.497Z,10.14
2023-04-03T18:07:41.429Z,10.10
2023-04-03T18:10:09.531Z,10.08
2023-04-03T18:12:37.772Z,9.87
2023-04-03T18:15:06.516Z,9.94
2023-04-03T18:17:34.268Z,9.97
2023-04-03T18:20:01.963Z,10.00
2023-04-03T18:22:31.170Z,10.04
2023-04-03T18:24:59.209Z,10.07
2023-04-03T18:27:28.517Z,10.02
2023-04-03T18:30:03.194Z,10.02
2023-04-03T18:32:31.062Z,9.95
2023-04-03T18:35:00.014Z,9.86
2023-04-03T18:37:28.411Z,9.82
2023-04-03T18:39:55.891Z,9.75
2023-04-03T18:42:25.727Z,9.83
2023-04-03T18:45:06.439Z,9.80
2023-04-03T18:47:37.654Z,9.74
2023-04-03T18:50:07.080Z,9.67
2023-04-03T18:52:34.851Z,9.73
2023-04-03T18:55:02.509Z,9.73
2023-04-03T18:57:30.328Z,9.63
2023-04-03T18:59:57.806Z,9.56
2023-04-03T19:02:26.494Z,9.50
2023-04-03T19:04:54.245Z,9.53
2023-04-03T19:07:21.756Z,9.44
2023-04-03T19:09:49.302Z,9.43
2023-04-03T19:12:16.841Z,9.22
2023-04-03T19:14:44.901Z,9.23
2023-04-03T19:17:12.445Z,9.23
2023-04-03T19:19:39.957Z,9.23
2023-04-03T19:22:08.133Z,9.23
2023-04-03T19:24:35.913Z,9.22
2023-04-03T19:27:03.392Z,9.22
2023-04-03T19:29:31.010Z,9.20
2023-04-03T19:31:58.536Z,9.12
2023-04-03T19:34:26.247Z,9.06
2023-04-03T19:36:54.094Z,8.97
2023-04-03T19:39:21.714Z,8.96
2023-04-03T19:41:49.783Z,8.96
2023-04-03T19:44:17.375Z,8.97
2023-04-03T19:46:50.465Z,8.88
2023-04-03T19:49:20.068Z,8.90
2023-04-03T19:51:47.953Z,8.74
2023-04-03T19:54:15.649Z,8.67
2023-04-03T19:56:43.302Z,8.68
2023-04-03T19:59:10.908Z,8.72
2023-04-03T20:01:39.264Z,8.63
2023-04-03T20:04:06.925Z,8.54
2023-04-03T20:06:34.735Z,8.57
2023-04-03T20:09:02.276Z,8.46
2023-04-03T20:11:29.856Z,8.46
2023-04-03T20:13:57.423Z,8.41
2023-04-03T20:16:26.208Z,8.38
2023-04-03T20:18:56.627Z,8.44
2023-04-03T20:21:29.675Z,8.47
2023-04-03T20:23:57.202Z,8.33
2023-04-03T20:26:27.714Z,8.32
2023-04-03T20:28:57.854Z,8.28
2023-04-03T20:31:27.126Z,8.22
2023-04-03T20:33:54.835Z,8.13
2023-04-03T20:36:23.898Z,8.05
2023-04-03T20:38:52.750Z,8.09
2023-04-03T20:41:20.776Z,8.13
2023-04-03T20:43:48.666Z,8.11
2023-04-03T20:46:48.920Z,8.11
2023-04-03T20:49:49.334Z,7.84
2023-04-03T20:52:16.839Z,7.89
2023-04-03T20:54:44.625Z,7.84
2023-04-03T20:57:12.489Z,7.76
2023-04-03T20:59:42.551Z,7.86
2023-04-03T21:02:11.680Z,7.84
2023-04-03T21:04:47.450Z,7.85
2023-04-03T21:07:52.649Z,7.96
2023-04-03T21:10:57.790Z,8.07
2023-04-03T21:14:02.730Z,8.00
2023-04-03T21:16:30.127Z,7.80
2023-04-03T21:19:10.795Z,7.77
2023-04-03T21:21:38.979Z,7.72
2023-04-03T21:24:10.297Z,7.68
2023-04-03T21:26:39.744Z,7.75
2023-04-03T21:29:07.812Z,7.65
2023-04-03T21:31:57.159Z,7.80
2023-04-03T21:34:26.619Z,7.56
2023-04-03T21:36:55.579Z,7.62
2023-04-03T21:39:23.491Z,7.55
2023-04-03T21:41:52.265Z,7.54
2023-04-03T21:44:20.658Z,7.55
2023-04-03T21:46:49.067Z,7.41
2023-04-03T21:49:16.638Z,7.53
2023-04-03T21:51:44.104Z,7.55
2023-04-03T21:54:12.020Z,7.52
2023-04-03T21:56:39.613Z,7.49
2023-04-03T21:59:07.327Z,7.50
2023-04-03T22:01:35.021Z,7.48
2023-04-03T22:04:03.250Z,7.46
2023-04-03T22:06:30.727Z,7.41
2023-04-03T22:08:58.289Z,7.36
2023-04-03T22:11:27.431Z,7.30
2023-04-03T22:13:56.263Z,7.32
2023-04-03T22:16:24.125Z,7.25
2023-04-03T22:18:53.089Z,7.25
2023-04-03T22:21:24.477Z,7.15
2023-04-03T22:23:52.855Z,7.12
2023-04-03T22:26:21.871Z,7.05
2023-04-03T22:28:49.434Z,7.08
2023-04-03T22:31:17.243Z,7.10
2023-04-03T22:33:46.161Z,7.08
2023-04-03T22:36:14.609Z,7.08
2023-04-03T22:38:47.084Z,7.10
2023-04-03T22:41:14.597Z,7.13
2023-04-03T22:43:42.865Z,7.13
2023-04-03T22:46:10.367Z,7.09
2023-04-03T22:48:39.023Z,7.12
2023-04-03T22:51:07.787Z,7.08
2023-04-03T22:53:36.390Z,7.11
2023-04-03T22:56:08.765Z,7.11
2023-04-03T22:58:37.136Z,7.12
2023-04-03T23:01:07.054Z,7.17
2023-04-03T23:03:36.400Z,7.15
2023-04-03T23:06:05.320Z,7.10
2023-04-03T23:08:35.326Z,7.09
2023-04-03T23:11:02.936Z,7.09
2023-04-03T23:13:30.711Z,6.99
2023-04-03T23:15:59.986Z,6.99
2023-04-03T23:18:31.852Z,7.00
2023-04-03T23:21:00.240Z,6.99
2023-04-03T23:23:28.001Z,6.94
2023-04-03T23:25:58.979Z,6.95
2023-04-03T23:28:27.666Z,6.89
2023-04-03T23:31:04.190Z,7.01
2023-04-03T23:33:32.572Z,6.91
2023-04-03T23:36:05.956Z,6.91
2023-04-03T23:38:33.557Z,6.90
2023-04-03T23:41:01.635Z,6.88
2023-04-03T23:43:29.288Z,6.92
2023-04-03T23:45:56.907Z,6.91
2023-04-03T23:48:25.145Z,6.89
2023-04-03T23:50:52.858Z,6.93
2023-04-03T23:53:20.220Z,6.92
2023-04-03T23:55:47.713Z,6.95
2023-04-03T23:58:15.246Z,6.96
